sensor_id;sensor_type;location;lat;lon;timestamp;pressure;altitude;pressure_sealevel;temperature;humidity
51067;BME280;37112;45.892;-123.962;2022-07-29T00:00:05;101313.56;;;19.28;74.07
51067;BME280;37112;45.892;-123.962;2022-07-29T00:02:39;101316.10;;;19.26;74.04
51067;BME280;37112;45.892;-123.962;2022-07-29T00:04:52;101317.98;;;19.25;73.90
51067;BME280;37112;45.892;-123.962;2022-07-29T00:07:05;101318.79;;;19.21;73.75
51067;BME280;37112;45.892;-123.962;2022-07-29T00:09:20;101314.61;;;19.23;74.18
51067;BME280;37112;45.892;-123.962;2022-07-29T00:11:33;101312.10;;;19.25;73.54
51067;BME280;37112;45.892;-123.962;2022-07-29T00:13:46;101308.14;;;19.27;74.00
51067;BME280;37112;45.892;-123.962;2022-07-29T00:15:59;101311.48;;;19.37;73.98
51067;BME280;37112;45.892;-123.962;2022-07-29T00:18:13;101311.39;;;19.40;73.22
51067;BME280;37112;45.892;-123.962;2022-07-29T00:20:26;101313.38;;;19.40;73.28
51067;BME280;37112;45.892;-123.962;2022-07-29T00:22:41;101315.98;;;19.40;72.75
51067;BME280;37112;45.892;-123.962;2022-07-29T00:24:54;101319.92;;;19.35;72.66
51067;BME280;37112;45.892;-123.962;2022-07-29T00:27:07;101328.40;;;19.37;73.34
51067;BME280;37112;45.892;-123.962;2022-07-29T00:29:20;101335.02;;;19.43;73.23
51067;BME280;37112;45.892;-123.962;2022-07-29T00:31:40;101336.95;;;19.49;73.09
51067;BME280;37112;45.892;-123.962;2022-07-29T00:33:54;101342.60;;;19.43;72.08
51067;BME280;37112;45.892;-123.962;2022-07-29T00:36:07;101344.91;;;19.26;71.85
51067;BME280;37112;45.892;-123.962;2022-07-29T00:38:21;101337.60;;;19.02;72.08
51067;BME280;37112;45.892;-123.962;2022-07-29T00:40:34;101337.20;;;18.91;73.01
51067;BME280;37112;45.892;-123.962;2022-07-29T00:42:52;101345.58;;;18.88;73.62
51067;BME280;37112;45.892;-123.962;2022-07-29T00:45:06;101348.96;;;18.79;73.62
51067;BME280;37112;45.892;-123.962;2022-07-29T00:47:19;101350.16;;;18.66;73.85
51067;BME280;37112;45.892;-123.962;2022-07-29T00:49:32;101343.30;;;18.50;74.42
51067;BME280;37112;45.892;-123.962;2022-07-29T00:51:45;101345.48;;;18.48;74.97
51067;BME280;37112;45.892;-123.962;2022-07-29T00:53:58;101344.10;;;18.35;74.91
51067;BME280;37112;45.892;-123.962;2022-07-29T00:56:11;101336.95;;;18.21;75.56
51067;BME280;37112;45.892;-123.962;2022-07-29T00:58:24;101332.52;;;18.04;76.34
51067;BME280;37112;45.892;-123.962;2022-07-29T01:00:39;101328.64;;;17.90;77.18
51067;BME280;37112;45.892;-123.962;2022-07-29T01:02:54;101325.41;;;17.75;77.74
51067;BME280;37112;45.892;-123.962;2022-07-29T01:05:08;101321.69;;;17.66;78.37
51067;BME280;37112;45.892;-123.962;2022-07-29T01:07:23;101325.62;;;17.63;78.96
51067;BME280;37112;45.892;-123.962;2022-07-29T01:09:37;101325.48;;;17.66;79.28
51067;BME280;37112;45.892;-123.962;2022-07-29T01:11:56;101328.80;;;17.69;79.43
51067;BME280;37112;45.892;-123.962;2022-07-29T01:14:10;101325.33;;;17.68;79.07
51067;BME280;37112;45.892;-123.962;2022-07-29T01:16:34;101331.97;;;17.64;79.56
51067;BME280;37112;45.892;-123.962;2022-07-29T01:18:49;101334.04;;;17.65;79.66
51067;BME280;37112;45.892;-123.962;2022-07-29T01:21:23;101335.23;;;17.64;79.57
51067;BME280;37112;45.892;-123.962;2022-07-29T01:23:56;101324.77;;;17.58;79.86
51067;BME280;37112;45.892;-123.962;2022-07-29T01:26:31;101315.90;;;17.48;80.13
51067;BME280;37112;45.892;-123.962;2022-07-29T01:29:04;101311.70;;;17.45;80.68
51067;BME280;37112;45.892;-123.962;2022-07-29T01:31:24;101309.42;;;17.44;80.98
51067;BME280;37112;45.892;-123.962;2022-07-29T01:33:43;101306.30;;;17.41;81.03
51067;BME280;37112;45.892;-123.962;2022-07-29T01:36:02;101310.47;;;17.39;81.15
51067;BME280;37112;45.892;-123.962;2022-07-29T01:38:21;101318.15;;;17.41;81.26
51067;BME280;37112;45.892;-123.962;2022-07-29T01:40:40;101319.33;;;17.46;81.31
51067;BME280;37112;45.892;-123.962;2022-07-29T01:42:57;101318.51;;;17.58;81.52
51067;BME280;37112;45.892;-123.962;2022-07-29T01:45:15;101312.37;;;17.64;81.22
51067;BME280;37112;45.892;-123.962;2022-07-29T01:47:35;101307.95;;;17.67;80.94
51067;BME280;37112;45.892;-123.962;2022-07-29T01:49:51;101308.29;;;17.74;81.05
51067;BME280;37112;45.892;-123.962;2022-07-29T01:52:11;101307.13;;;17.89;81.52
51067;BME280;37112;45.892;-123.962;2022-07-29T01:54:34;101302.90;;;18.06;81.60
51067;BME280;37112;45.892;-123.962;2022-07-29T01:56:49;101301.39;;;18.25;81.30
51067;BME280;37112;45.892;-123.962;2022-07-29T01:59:04;101297.00;;;18.37;80.52
51067;BME280;37112;45.892;-123.962;2022-07-29T02:01:20;101297.39;;;18.45;79.93
51067;BME280;37112;45.892;-123.962;2022-07-29T02:03:35;101298.56;;;18.48;79.12
51067;BME280;37112;45.892;-123.962;2022-07-29T02:05:50;101298.11;;;18.53;78.77
51067;BME280;37112;45.892;-123.962;2022-07-29T02:08:06;101291.28;;;18.49;78.15
51067;BME280;37112;45.892;-123.962;2022-07-29T02:10:23;101292.45;;;18.46;77.84
51067;BME280;37112;45.892;-123.962;2022-07-29T02:12:38;101289.69;;;18.45;78.08
51067;BME280;37112;45.892;-123.962;2022-07-29T02:15:02;101285.91;;;18.46;78.24
51067;BME280;37112;45.892;-123.962;2022-07-29T02:17:24;101291.30;;;18.50;78.07
51067;BME280;37112;45.892;-123.962;2022-07-29T02:19:39;101289.45;;;18.53;78.01
51067;BME280;37112;45.892;-123.962;2022-07-29T02:21:57;101291.55;;;18.55;77.80
51067;BME280;37112;45.892;-123.962;2022-07-29T02:24:13;101292.88;;;18.55;77.58
51067;BME280;37112;45.892;-123.962;2022-07-29T02:26:28;101290.70;;;18.55;77.44
51067;BME280;37112;45.892;-123.962;2022-07-29T02:28:42;101290.95;;;18.51;77.11
51067;BME280;37112;45.892;-123.962;2022-07-29T02:31:00;101288.84;;;18.48;77.07
51067;BME280;37112;45.892;-123.962;2022-07-29T02:33:15;101281.23;;;18.45;77.01
51067;BME280;37112;45.892;-123.962;2022-07-29T02:35:30;101281.14;;;18.42;77.19
51067;BME280;37112;45.892;-123.962;2022-07-29T02:37:45;101280.41;;;18.40;77.37
51067;BME280;37112;45.892;-123.962;2022-07-29T02:40:19;101280.48;;;18.39;77.25
51067;BME280;37112;45.892;-123.962;2022-07-29T02:42:33;101284.21;;;18.33;77.08
51067;BME280;37112;45.892;-123.962;2022-07-29T02:44:49;101285.61;;;18.32;77.38
51067;BME280;37112;45.892;-123.962;2022-07-29T02:47:06;101287.66;;;18.33;77.50
51067;BME280;37112;45.892;-123.962;2022-07-29T02:49:34;101287.61;;;18.30;77.40
51067;BME280;37112;45.892;-123.962;2022-07-29T02:51:49;101288.27;;;18.29;77.54
51067;BME280;37112;45.892;-123.962;2022-07-29T02:54:04;101283.77;;;18.29;77.58
51067;BME280;37112;45.892;-123.962;2022-07-29T02:56:22;101284.33;;;18.28;77.35
51067;BME280;37112;45.892;-123.962;2022-07-29T02:58:40;101280.86;;;18.27;77.40
51067;BME280;37112;45.892;-123.962;2022-07-29T03:00:55;101276.34;;;18.22;77.05
51067;BME280;37112;45.892;-123.962;2022-07-29T03:03:12;101276.05;;;18.17;76.90
51067;BME280;37112;45.892;-123.962;2022-07-29T03:05:26;101278.77;;;18.11;76.93
51067;BME280;37112;45.892;-123.962;2022-07-29T03:07:39;101279.87;;;18.06;77.17
51067;BME280;37112;45.892;-123.962;2022-07-29T03:09:53;101278.52;;;17.98;76.97
51067;BME280;37112;45.892;-123.962;2022-07-29T03:12:09;101275.16;;;17.89;77.07
51067;BME280;37112;45.892;-123.962;2022-07-29T03:14:23;101277.02;;;17.86;77.46
51067;BME280;37112;45.892;-123.962;2022-07-29T03:16:37;101280.69;;;17.79;77.23
51067;BME280;37112;45.892;-123.962;2022-07-29T03:18:50;101287.64;;;17.70;77.18
51067;BME280;37112;45.892;-123.962;2022-07-29T03:21:05;101287.96;;;17.62;77.17
51067;BME280;37112;45.892;-123.962;2022-07-29T03:23:20;101286.05;;;17.53;77.31
51067;BME280;37112;45.892;-123.962;2022-07-29T03:25:43;101285.60;;;17.42;77.36
51067;BME280;37112;45.892;-123.962;2022-07-29T03:27:57;101288.27;;;17.32;77.44
51067;BME280;37112;45.892;-123.962;2022-07-29T03:30:12;101292.80;;;17.25;77.73
51067;BME280;37112;45.892;-123.962;2022-07-29T03:32:30;101291.69;;;17.21;77.96
51067;BME280;37112;45.892;-123.962;2022-07-29T03:34:43;101290.29;;;17.16;78.01
51067;BME280;37112;45.892;-123.962;2022-07-29T03:36:56;101290.79;;;17.09;78.12
51067;BME280;37112;45.892;-123.962;2022-07-29T03:39:10;101284.55;;;17.00;78.03
51067;BME280;37112;45.892;-123.962;2022-07-29T03:41:26;101286.79;;;16.92;78.49
51067;BME280;37112;45.892;-123.962;2022-07-29T03:43:41;101288.81;;;16.88;78.64
51067;BME280;37112;45.892;-123.962;2022-07-29T03:45:59;101287.63;;;16.83;78.59
51067;BME280;37112;45.892;-123.962;2022-07-29T03:48:15;101289.41;;;16.77;78.67
51067;BME280;37112;45.892;-123.962;2022-07-29T03:50:29;101286.04;;;16.72;78.81
51067;BME280;37112;45.892;-123.962;2022-07-29T03:52:44;101282.32;;;16.65;79.21
51067;BME280;37112;45.892;-123.962;2022-07-29T03:54:57;101289.98;;;16.57;79.16
51067;BME280;37112;45.892;-123.962;2022-07-29T03:57:12;101287.63;;;16.48;79.25
51067;BME280;37112;45.892;-123.962;2022-07-29T03:59:26;101289.52;;;16.42;79.64
51067;BME280;37112;45.892;-123.962;2022-07-29T04:01:41;101291.37;;;16.38;79.81
51067;BME280;37112;45.892;-123.962;2022-07-29T04:03:55;101290.75;;;16.30;80.09
51067;BME280;37112;45.892;-123.962;2022-07-29T04:06:09;101290.05;;;16.23;80.05
51067;BME280;37112;45.892;-123.962;2022-07-29T04:08:22;101288.48;;;16.19;80.22
51067;BME280;37112;45.892;-123.962;2022-07-29T04:10:35;101289.11;;;16.17;80.46
51067;BME280;37112;45.892;-123.962;2022-07-29T04:12:48;101293.65;;;16.14;80.65
51067;BME280;37112;45.892;-123.962;2022-07-29T04:15:01;101287.09;;;16.11;80.70
51067;BME280;37112;45.892;-123.962;2022-07-29T04:17:14;101280.96;;;16.09;80.82
51067;BME280;37112;45.892;-123.962;2022-07-29T04:19:27;101278.73;;;16.08;81.03
51067;BME280;37112;45.892;-123.962;2022-07-29T04:21:42;101276.12;;;16.08;81.09
51067;BME280;37112;45.892;-123.962;2022-07-29T04:23:55;101275.02;;;16.08;81.27
51067;BME280;37112;45.892;-123.962;2022-07-29T04:26:09;101275.70;;;16.04;81.03
51067;BME280;37112;45.892;-123.962;2022-07-29T04:28:22;101273.85;;;16.03;81.13
51067;BME280;37112;45.892;-123.962;2022-07-29T04:30:36;101271.00;;;16.00;81.28
51067;BME280;37112;45.892;-123.962;2022-07-29T04:32:50;101274.19;;;15.99;81.40
51067;BME280;37112;45.892;-123.962;2022-07-29T04:35:03;101281.86;;;15.92;81.56
51067;BME280;37112;45.892;-123.962;2022-07-29T04:37:16;101285.29;;;15.87;81.66
51067;BME280;37112;45.892;-123.962;2022-07-29T04:39:30;101286.39;;;15.82;81.73
51067;BME280;37112;45.892;-123.962;2022-07-29T04:41:43;101284.27;;;15.80;81.85
51067;BME280;37112;45.892;-123.962;2022-07-29T04:43:56;101283.74;;;15.78;81.95
51067;BME280;37112;45.892;-123.962;2022-07-29T04:46:11;101281.79;;;15.75;82.02
51067;BME280;37112;45.892;-123.962;2022-07-29T04:48:24;101283.35;;;15.74;82.23
51067;BME280;37112;45.892;-123.962;2022-07-29T04:50:40;101282.02;;;15.73;82.30
51067;BME280;37112;45.892;-123.962;2022-07-29T04:52:54;101282.61;;;15.72;82.42
51067;BME280;37112;45.892;-123.962;2022-07-29T04:55:08;101280.95;;;15.70;82.61
51067;BME280;37112;45.892;-123.962;2022-07-29T04:57:21;101273.54;;;15.67;82.77
51067;BME280;37112;45.892;-123.962;2022-07-29T04:59:35;101265.91;;;15.63;82.80
51067;BME280;37112;45.892;-123.962;2022-07-29T05:01:48;101268.42;;;15.61;82.97
51067;BME280;37112;45.892;-123.962;2022-07-29T05:04:01;101270.30;;;15.60;83.02
51067;BME280;37112;45.892;-123.962;2022-07-29T05:06:14;101272.58;;;15.60;83.27
51067;BME280;37112;45.892;-123.962;2022-07-29T05:08:27;101277.88;;;15.59;83.43
51067;BME280;37112;45.892;-123.962;2022-07-29T05:10:40;101275.52;;;15.57;83.55
51067;BME280;37112;45.892;-123.962;2022-07-29T05:12:53;101272.15;;;15.54;83.58
51067;BME280;37112;45.892;-123.962;2022-07-29T05:15:08;101270.83;;;15.51;83.74
51067;BME280;37112;45.892;-123.962;2022-07-29T05:17:21;101268.41;;;15.50;83.93
51067;BME280;37112;45.892;-123.962;2022-07-29T05:19:35;101274.41;;;15.49;84.03
51067;BME280;37112;45.892;-123.962;2022-07-29T05:21:48;101278.36;;;15.49;84.13
51067;BME280;37112;45.892;-123.962;2022-07-29T05:24:02;101277.14;;;15.48;84.20
51067;BME280;37112;45.892;-123.962;2022-07-29T05:26:15;101278.04;;;15.48;84.16
51067;BME280;37112;45.892;-123.962;2022-07-29T05:28:28;101277.50;;;15.48;84.37
51067;BME280;37112;45.892;-123.962;2022-07-29T05:30:41;101275.20;;;15.48;84.32
51067;BME280;37112;45.892;-123.962;2022-07-29T05:32:54;101273.16;;;15.46;84.34
51067;BME280;37112;45.892;-123.962;2022-07-29T05:35:09;101277.93;;;15.47;84.65
51067;BME280;37112;45.892;-123.962;2022-07-29T05:37:23;101279.15;;;15.48;85.06
51067;BME280;37112;45.892;-123.962;2022-07-29T05:39:36;101272.64;;;15.46;85.15
51067;BME280;37112;45.892;-123.962;2022-07-29T05:41:57;101271.56;;;15.44;84.93
51067;BME280;37112;45.892;-123.962;2022-07-29T05:44:10;101277.99;;;15.44;85.10
51067;BME280;37112;45.892;-123.962;2022-07-29T05:46:24;101282.05;;;15.45;85.14
51067;BME280;37112;45.892;-123.962;2022-07-29T05:48:37;101280.33;;;15.44;85.46
51067;BME280;37112;45.892;-123.962;2022-07-29T05:50:51;101278.54;;;15.42;85.28
51067;BME280;37112;45.892;-123.962;2022-07-29T05:53:04;101270.60;;;15.43;85.25
51067;BME280;37112;45.892;-123.962;2022-07-29T05:55:28;101270.61;;;15.43;85.21
51067;BME280;37112;45.892;-123.962;2022-07-29T05:57:41;101275.06;;;15.43;85.17
51067;BME280;37112;45.892;-123.962;2022-07-29T05:59:56;101281.48;;;15.43;85.31
51067;BME280;37112;45.892;-123.962;2022-07-29T06:02:09;101283.10;;;15.43;85.39
51067;BME280;37112;45.892;-123.962;2022-07-29T06:04:22;101280.53;;;15.44;85.47
51067;BME280;37112;45.892;-123.962;2022-07-29T06:06:35;101287.33;;;15.46;85.47
51067;BME280;37112;45.892;-123.962;2022-07-29T06:08:48;101293.65;;;15.47;85.57
51067;BME280;37112;45.892;-123.962;2022-07-29T06:11:01;101300.09;;;15.50;85.75
51067;BME280;37112;45.892;-123.962;2022-07-29T06:13:15;101298.83;;;15.50;85.59
51067;BME280;37112;45.892;-123.962;2022-07-29T06:15:28;101294.96;;;15.51;85.58
51067;BME280;37112;45.892;-123.962;2022-07-29T06:17:41;101288.25;;;15.50;85.27
51067;BME280;37112;45.892;-123.962;2022-07-29T06:20:11;101288.52;;;15.49;85.12
51067;BME280;37112;45.892;-123.962;2022-07-29T06:22:24;101287.91;;;15.48;85.08
51067;BME280;37112;45.892;-123.962;2022-07-29T06:24:38;101284.30;;;15.48;85.28
51067;BME280;37112;45.892;-123.962;2022-07-29T06:26:54;101291.57;;;15.49;85.41
51067;BME280;37112;45.892;-123.962;2022-07-29T06:29:07;101291.45;;;15.51;85.55
51067;BME280;37112;45.892;-123.962;2022-07-29T06:31:21;101291.40;;;15.51;85.53
51067;BME280;37112;45.892;-123.962;2022-07-29T06:33:34;101292.05;;;15.52;85.48
51067;BME280;37112;45.892;-123.962;2022-07-29T06:35:47;101285.98;;;15.52;85.41
51067;BME280;37112;45.892;-123.962;2022-07-29T06:38:03;101285.48;;;15.51;85.27
51067;BME280;37112;45.892;-123.962;2022-07-29T06:40:36;101290.14;;;15.47;85.14
51067;BME280;37112;45.892;-123.962;2022-07-29T06:43:09;101285.96;;;15.45;85.29
51067;BME280;37112;45.892;-123.962;2022-07-29T06:45:22;101284.45;;;15.44;85.21
51067;BME280;37112;45.892;-123.962;2022-07-29T06:47:36;101286.33;;;15.41;85.24
51067;BME280;37112;45.892;-123.962;2022-07-29T06:49:49;101287.55;;;15.37;85.30
51067;BME280;37112;45.892;-123.962;2022-07-29T06:52:03;101283.84;;;15.36;85.28
51067;BME280;37112;45.892;-123.962;2022-07-29T06:54:16;101283.74;;;15.35;85.33
51067;BME280;37112;45.892;-123.962;2022-07-29T06:56:29;101289.30;;;15.35;85.44
51067;BME280;37112;45.892;-123.962;2022-07-29T06:58:48;101286.70;;;15.31;85.42
51067;BME280;37112;45.892;-123.962;2022-07-29T07:01:03;101282.00;;;15.29;85.66
51067;BME280;37112;45.892;-123.962;2022-07-29T07:03:17;101282.85;;;15.32;85.73
51067;BME280;37112;45.892;-123.962;2022-07-29T07:05:31;101283.58;;;15.35;85.80
51067;BME280;37112;45.892;-123.962;2022-07-29T07:07:44;101288.98;;;15.35;85.60
51067;BME280;37112;45.892;-123.962;2022-07-29T07:09:57;101286.81;;;15.32;85.43
51067;BME280;37112;45.892;-123.962;2022-07-29T07:12:11;101290.14;;;15.30;85.49
51067;BME280;37112;45.892;-123.962;2022-07-29T07:14:23;101289.13;;;15.30;85.26
51067;BME280;37112;45.892;-123.962;2022-07-29T07:16:38;101285.64;;;15.29;85.28
51067;BME280;37112;45.892;-123.962;2022-07-29T07:18:51;101282.30;;;15.28;85.32
51067;BME280;37112;45.892;-123.962;2022-07-29T07:21:04;101287.48;;;15.28;85.53
51067;BME280;37112;45.892;-123.962;2022-07-29T07:23:17;101290.77;;;15.27;85.52
51067;BME280;37112;45.892;-123.962;2022-07-29T07:25:30;101292.28;;;15.26;85.47
51067;BME280;37112;45.892;-123.962;2022-07-29T07:27:44;101291.12;;;15.25;85.45
51067;BME280;37112;45.892;-123.962;2022-07-29T07:29:57;101285.56;;;15.25;85.55
51067;BME280;37112;45.892;-123.962;2022-07-29T07:32:10;101289.81;;;15.26;85.62
51067;BME280;37112;45.892;-123.962;2022-07-29T07:34:23;101292.27;;;15.24;85.65
51067;BME280;37112;45.892;-123.962;2022-07-29T07:36:38;101289.04;;;15.20;85.32
51067;BME280;37112;45.892;-123.962;2022-07-29T07:38:51;101296.90;;;15.15;85.36
51067;BME280;37112;45.892;-123.962;2022-07-29T07:41:03;101302.39;;;15.14;85.50
51067;BME280;37112;45.892;-123.962;2022-07-29T07:43:16;101303.15;;;15.13;85.59
51067;BME280;37112;45.892;-123.962;2022-07-29T07:45:30;101297.14;;;15.10;85.20
51067;BME280;37112;45.892;-123.962;2022-07-29T07:47:45;101301.02;;;15.06;85.08
51067;BME280;37112;45.892;-123.962;2022-07-29T07:49:57;101308.77;;;15.03;84.95
51067;BME280;37112;45.892;-123.962;2022-07-29T07:52:10;101314.70;;;15.02;85.12
51067;BME280;37112;45.892;-123.962;2022-07-29T07:54:23;101317.48;;;15.01;85.12
51067;BME280;37112;45.892;-123.962;2022-07-29T07:56:36;101318.91;;;14.99;85.19
51067;BME280;37112;45.892;-123.962;2022-07-29T07:58:49;101319.15;;;14.98;85.30
51067;BME280;37112;45.892;-123.962;2022-07-29T08:01:02;101318.98;;;14.98;85.35
51067;BME280;37112;45.892;-123.962;2022-07-29T08:03:16;101317.38;;;14.96;85.05
51067;BME280;37112;45.892;-123.962;2022-07-29T08:05:29;101317.33;;;14.94;85.07
51067;BME280;37112;45.892;-123.962;2022-07-29T08:07:42;101313.45;;;14.93;85.21
51067;BME280;37112;45.892;-123.962;2022-07-29T08:09:56;101309.91;;;14.93;85.00
51067;BME280;37112;45.892;-123.962;2022-07-29T08:12:09;101307.83;;;14.92;85.06
51067;BME280;37112;45.892;-123.962;2022-07-29T08:14:22;101311.91;;;14.90;85.02
51067;BME280;37112;45.892;-123.962;2022-07-29T08:16:35;101310.17;;;14.87;85.03
51067;BME280;37112;45.892;-123.962;2022-07-29T08:18:49;101310.21;;;14.86;85.10
51067;BME280;37112;45.892;-123.962;2022-07-29T08:21:02;101317.00;;;14.84;84.93
51067;BME280;37112;45.892;-123.962;2022-07-29T08:23:15;101320.00;;;14.82;84.93
51067;BME280;37112;45.892;-123.962;2022-07-29T08:25:29;101313.91;;;14.80;84.81
51067;BME280;37112;45.892;-123.962;2022-07-29T08:27:47;101311.24;;;14.75;84.60
51067;BME280;37112;45.892;-123.962;2022-07-29T08:30:00;101315.92;;;14.72;84.77
51067;BME280;37112;45.892;-123.962;2022-07-29T08:32:13;101317.00;;;14.72;84.93
51067;BME280;37112;45.892;-123.962;2022-07-29T08:34:43;101315.92;;;14.72;85.13
51067;BME280;37112;45.892;-123.962;2022-07-29T08:36:56;101318.80;;;14.72;85.23
51067;BME280;37112;45.892;-123.962;2022-07-29T08:39:09;101318.58;;;14.72;85.43
51067;BME280;37112;45.892;-123.962;2022-07-29T08:41:22;101316.59;;;14.73;85.47
51067;BME280;37112;45.892;-123.962;2022-07-29T08:43:36;101318.44;;;14.72;85.45
51067;BME280;37112;45.892;-123.962;2022-07-29T08:45:50;101321.45;;;14.72;85.59
51067;BME280;37112;45.892;-123.962;2022-07-29T08:48:03;101326.48;;;14.72;85.65
51067;BME280;37112;45.892;-123.962;2022-07-29T08:50:18;101318.44;;;14.72;85.54
51067;BME280;37112;45.892;-123.962;2022-07-29T08:52:34;101314.31;;;14.72;85.59
51067;BME280;37112;45.892;-123.962;2022-07-29T08:54:48;101323.23;;;14.72;85.55
51067;BME280;37112;45.892;-123.962;2022-07-29T08:57:02;101326.50;;;14.72;85.66
51067;BME280;37112;45.892;-123.962;2022-07-29T08:59:18;101322.85;;;14.73;85.72
51067;BME280;37112;45.892;-123.962;2022-07-29T09:01:34;101318.70;;;14.73;85.61
51067;BME280;37112;45.892;-123.962;2022-07-29T09:03:57;101322.91;;;14.74;85.64
51067;BME280;37112;45.892;-123.962;2022-07-29T09:06:15;101323.94;;;14.75;85.81
51067;BME280;37112;45.892;-123.962;2022-07-29T09:08:30;101318.09;;;14.76;85.82
51067;BME280;37112;45.892;-123.962;2022-07-29T09:10:43;101323.27;;;14.76;85.62
51067;BME280;37112;45.892;-123.962;2022-07-29T09:12:57;101327.38;;;14.74;85.56
51067;BME280;37112;45.892;-123.962;2022-07-29T09:15:10;101331.70;;;14.76;85.88
51067;BME280;37112;45.892;-123.962;2022-07-29T09:17:41;101330.67;;;14.78;85.80
51067;BME280;37112;45.892;-123.962;2022-07-29T09:20:11;101332.45;;;14.79;85.79
51067;BME280;37112;45.892;-123.962;2022-07-29T09:22:32;101327.92;;;14.82;86.06
51067;BME280;37112;45.892;-123.962;2022-07-29T09:24:50;101325.95;;;14.82;85.79
51067;BME280;37112;45.892;-123.962;2022-07-29T09:27:05;101331.11;;;14.82;85.90
51067;BME280;37112;45.892;-123.962;2022-07-29T09:29:21;101333.79;;;14.84;86.04
51067;BME280;37112;45.892;-123.962;2022-07-29T09:31:38;101323.16;;;14.85;86.06
51067;BME280;37112;45.892;-123.962;2022-07-29T09:33:53;101326.46;;;14.84;85.95
51067;BME280;37112;45.892;-123.962;2022-07-29T09:36:08;101339.10;;;14.85;86.09
51067;BME280;37112;45.892;-123.962;2022-07-29T09:38:22;101336.70;;;14.86;86.37
51067;BME280;37112;45.892;-123.962;2022-07-29T09:40:35;101332.02;;;14.87;86.29
51067;BME280;37112;45.892;-123.962;2022-07-29T09:42:48;101335.31;;;14.85;86.25
51067;BME280;37112;45.892;-123.962;2022-07-29T09:45:01;101345.45;;;14.86;86.40
51067;BME280;37112;45.892;-123.962;2022-07-29T09:47:14;101346.23;;;14.88;86.59
51067;BME280;37112;45.892;-123.962;2022-07-29T09:49:28;101344.91;;;14.91;86.70
51067;BME280;37112;45.892;-123.962;2022-07-29T09:51:41;101347.31;;;14.92;86.86
51067;BME280;37112;45.892;-123.962;2022-07-29T09:53:54;101352.21;;;14.93;86.75
51067;BME280;37112;45.892;-123.962;2022-07-29T09:56:07;101353.52;;;14.95;86.83
51067;BME280;37112;45.892;-123.962;2022-07-29T09:58:21;101351.59;;;14.99;87.06
51067;BME280;37112;45.892;-123.962;2022-07-29T10:00:44;101356.55;;;15.02;87.10
51067;BME280;37112;45.892;-123.962;2022-07-29T10:03:02;101361.27;;;15.04;87.06
51067;BME280;37112;45.892;-123.962;2022-07-29T10:05:23;101349.90;;;15.05;86.92
51067;BME280;37112;45.892;-123.962;2022-07-29T10:07:49;101349.52;;;15.03;86.70
51067;BME280;37112;45.892;-123.962;2022-07-29T10:10:06;101356.30;;;15.03;86.86
51067;BME280;37112;45.892;-123.962;2022-07-29T10:12:19;101351.77;;;15.04;86.96
51067;BME280;37112;45.892;-123.962;2022-07-29T10:14:33;101355.78;;;15.03;86.77
51067;BME280;37112;45.892;-123.962;2022-07-29T10:16:46;101354.25;;;15.02;86.85
51067;BME280;37112;45.892;-123.962;2022-07-29T10:18:59;101359.58;;;15.03;86.96
51067;BME280;37112;45.892;-123.962;2022-07-29T10:21:13;101359.54;;;15.03;87.04
51067;BME280;37112;45.892;-123.962;2022-07-29T10:23:45;101360.79;;;15.03;86.98
51067;BME280;37112;45.892;-123.962;2022-07-29T10:25:58;101355.02;;;15.04;86.89
51067;BME280;37112;45.892;-123.962;2022-07-29T10:28:11;101360.56;;;15.04;86.89
51067;BME280;37112;45.892;-123.962;2022-07-29T10:30:26;101362.73;;;15.03;86.95
51067;BME280;37112;45.892;-123.962;2022-07-29T10:32:51;101353.06;;;15.04;86.91
51067;BME280;37112;45.892;-123.962;2022-07-29T10:35:15;101350.09;;;15.03;86.68
51067;BME280;37112;45.892;-123.962;2022-07-29T10:37:37;101355.70;;;15.02;86.71
51067;BME280;37112;45.892;-123.962;2022-07-29T10:40:00;101355.52;;;15.02;86.83
51067;BME280;37112;45.892;-123.962;2022-07-29T10:42:42;101348.81;;;15.03;86.91
51067;BME280;37112;45.892;-123.962;2022-07-29T10:44:56;101353.23;;;15.04;86.91
51067;BME280;37112;45.892;-123.962;2022-07-29T10:47:10;101356.15;;;15.03;86.86
51067;BME280;37112;45.892;-123.962;2022-07-29T10:49:32;101356.66;;;15.03;87.11
51067;BME280;37112;45.892;-123.962;2022-07-29T10:52:00;101353.22;;;15.04;87.06
51067;BME280;37112;45.892;-123.962;2022-07-29T10:54:14;101353.95;;;15.04;87.05
51067;BME280;37112;45.892;-123.962;2022-07-29T10:56:29;101358.64;;;15.05;87.29
51067;BME280;37112;45.892;-123.962;2022-07-29T10:58:44;101353.10;;;15.08;87.42
51067;BME280;37112;45.892;-123.962;2022-07-29T11:01:29;101352.77;;;15.08;87.30
51067;BME280;37112;45.892;-123.962;2022-07-29T11:03:49;101354.63;;;15.06;87.32
51067;BME280;37112;45.892;-123.962;2022-07-29T11:06:05;101357.23;;;15.05;87.38
51067;BME280;37112;45.892;-123.962;2022-07-29T11:08:24;101360.05;;;15.03;87.33
51067;BME280;37112;45.892;-123.962;2022-07-29T11:10:37;101359.95;;;15.02;87.44
51067;BME280;37112;45.892;-123.962;2022-07-29T11:12:53;101360.68;;;15.02;87.49
51067;BME280;37112;45.892;-123.962;2022-07-29T11:15:06;101364.13;;;15.01;87.37
51067;BME280;37112;45.892;-123.962;2022-07-29T11:17:27;101361.73;;;14.98;87.16
51067;BME280;37112;45.892;-123.962;2022-07-29T11:22:50;101365.38;;;14.95;87.34
51067;BME280;37112;45.892;-123.962;2022-07-29T11:25:17;101366.58;;;14.90;87.28